sensor_id;sensor_type;location;lat;lon;timestamp;temperature;humidity
37846;DHT22;23686;49.828;8.702;2023-02-28T00:00:17;0.70;88.80
37846;DHT22;23686;49.828;8.702;2023-02-28T00:02:44;0.60;89.10
37846;DHT22;23686;49.828;8.702;2023-02-28T00:05:12;0.60;89.20
37846;DHT22;23686;49.828;8.702;2023-02-28T00:07:38;0.50;89.30
37846;DHT22;23686;49.828;8.702;2023-02-28T00:10:07;0.50;89.80
37846;DHT22;23686;49.828;8.702;2023-02-28T00:12:34;0.50;90.00
37846;DHT22;23686;49.828;8.702;2023-02-28T00:15:01;0.50;90.30
37846;DHT22;23686;49.828;8.702;2023-02-28T00:17:27;0.50;90.20
37846;DHT22;23686;49.828;8.702;2023-02-28T00:19:52;0.50;90.40
37846;DHT22;23686;49.828;8.702;2023-02-28T00:22:19;0.60;90.30
37846;DHT22;23686;49.828;8.702;2023-02-28T00:24:45;0.50;90.30
37846;DHT22;23686;49.828;8.702;2023-02-28T00:27:11;0.60;90.30
37846;DHT22;23686;49.828;8.702;2023-02-28T00:29:37;0.60;90.30
37846;DHT22;23686;49.828;8.702;2023-02-28T00:32:03;0.50;90.30
37846;DHT22;23686;49.828;8.702;2023-02-28T00:34:29;0.60;90.30
37846;DHT22;23686;49.828;8.702;2023-02-28T00:36:55;0.60;90.20
37846;DHT22;23686;49.828;8.702;2023-02-28T00:39:21;0.60;90.40
37846;DHT22;23686;49.828;8.702;2023-02-28T00:41:46;0.50;90.30
37846;DHT22;23686;49.828;8.702;2023-02-28T00:44:12;0.50;90.50
37846;DHT22;23686;49.828;8.702;2023-02-28T00:46:37;0.50;90.60
37846;DHT22;23686;49.828;8.702;2023-02-28T00:49:03;0.60;91.20
37846;DHT22;23686;49.828;8.702;2023-02-28T00:51:28;0.50;91.60
37846;DHT22;23686;49.828;8.702;2023-02-28T00:53:54;0.50;91.50
37846;DHT22;23686;49.828;8.702;2023-02-28T00:56:19;0.60;91.30
37846;DHT22;23686;49.828;8.702;2023-02-28T00:58:45;0.60;91.20
37846;DHT22;23686;49.828;8.702;2023-02-28T01:01:11;0.60;91.30
37846;DHT22;23686;49.828;8.702;2023-02-28T01:03:36;0.60;91.60
37846;DHT22;23686;49.828;8.702;2023-02-28T01:06:02;0.70;91.50
37846;DHT22;23686;49.828;8.702;2023-02-28T01:08:27;0.70;91.90
37846;DHT22;23686;49.828;8.702;2023-02-28T01:10:53;0.70;91.40
37846;DHT22;23686;49.828;8.702;2023-02-28T01:13:19;0.70;91.30
37846;DHT22;23686;49.828;8.702;2023-02-28T01:15:49;0.70;91.00
37846;DHT22;23686;49.828;8.702;2023-02-28T01:18:16;0.70;90.90
37846;DHT22;23686;49.828;8.702;2023-02-28T01:20:42;0.60;91.00
37846;DHT22;23686;49.828;8.702;2023-02-28T01:23:07;0.60;90.90
37846;DHT22;23686;49.828;8.702;2023-02-28T01:25:35;0.60;90.80
37846;DHT22;23686;49.828;8.702;2023-02-28T01:28:01;0.50;91.10
37846;DHT22;23686;49.828;8.702;2023-02-28T01:30:27;0.50;91.30
37846;DHT22;23686;49.828;8.702;2023-02-28T01:32:52;0.40;91.60
37846;DHT22;23686;49.828;8.702;2023-02-28T01:35:19;0.40;91.80
37846;DHT22;23686;49.828;8.702;2023-02-28T01:37:44;0.40;91.70
37846;DHT22;23686;49.828;8.702;2023-02-28T01:40:11;0.30;92.00
37846;DHT22;23686;49.828;8.702;2023-02-28T01:42:36;0.30;92.30
37846;DHT22;23686;49.828;8.702;2023-02-28T01:45:28;0.30;92.30
37846;DHT22;23686;49.828;8.702;2023-02-28T01:47:59;0.30;92.90
37846;DHT22;23686;49.828;8.702;2023-02-28T01:50:30;0.30;92.90
37846;DHT22;23686;49.828;8.702;2023-02-28T01:52:58;0.20;93.20
37846;DHT22;23686;49.828;8.702;2023-02-28T01:55:26;0.20;93.50
37846;DHT22;23686;49.828;8.702;2023-02-28T01:57:56;0.10;93.50
37846;DHT22;23686;49.828;8.702;2023-02-28T02:00:24;0.10;93.90
37846;DHT22;23686;49.828;8.702;2023-02-28T02:02:56;0.10;94.00
37846;DHT22;23686;49.828;8.702;2023-02-28T02:05:25;0.10;94.10
37846;DHT22;23686;49.828;8.702;2023-02-28T02:07:54;0.10;94.30
37846;DHT22;23686;49.828;8.702;2023-02-28T02:13:52;0.00;94.90
37846;DHT22;23686;49.828;8.702;2023-02-28T02:16:48;0.00;94.80
37846;DHT22;23686;49.828;8.702;2023-02-28T02:25:32;0.00;95.40
37846;DHT22;23686;49.828;8.702;2023-02-28T02:36:42;0.00;95.90
37846;DHT22;23686;49.828;8.702;2023-02-28T02:39:21;0.00;96.20
37846;DHT22;23686;49.828;8.702;2023-02-28T02:41:54;0.00;96.40
37846;DHT22;23686;49.828;8.702;2023-02-28T02:44:33;0.00;96.50
37846;DHT22;23686;49.828;8.702;2023-02-28T02:47:13;0.00;96.70
37846;DHT22;23686;49.828;8.702;2023-02-28T02:49:43;0.00;96.70
37846;DHT22;23686;49.828;8.702;2023-02-28T02:52:13;0.00;96.70
37846;DHT22;23686;49.828;8.702;2023-02-28T02:54:44;0.00;96.70
37846;DHT22;23686;49.828;8.702;2023-02-28T02:57:19;0.10;96.90
37846;DHT22;23686;49.828;8.702;2023-02-28T02:59:45;0.10;96.50
37846;DHT22;23686;49.828;8.702;2023-02-28T03:02:14;0.20;96.40
37846;DHT22;23686;49.828;8.702;2023-02-28T03:04:45;0.20;96.00
37846;DHT22;23686;49.828;8.702;2023-02-28T03:07:11;0.20;95.90
37846;DHT22;23686;49.828;8.702;2023-02-28T03:09:37;0.30;95.90
37846;DHT22;23686;49.828;8.702;2023-02-28T03:12:03;0.30;96.10
37846;DHT22;23686;49.828;8.702;2023-02-28T03:23:03;0.30;96.00
37846;DHT22;23686;49.828;8.702;2023-02-28T03:25:52;0.20;96.10
37846;DHT22;23686;49.828;8.702;2023-02-28T03:30:51;0.20;96.70
37846;DHT22;23686;49.828;8.702;2023-02-28T03:33:35;0.20;96.60
37846;DHT22;23686;49.828;8.702;2023-02-28T03:36:16;0.20;96.70
37846;DHT22;23686;49.828;8.702;2023-02-28T03:38:48;0.10;97.30
37846;DHT22;23686;49.828;8.702;2023-02-28T03:41:24;0.20;97.30
37846;DHT22;23686;49.828;8.702;2023-02-28T03:43:56;0.20;96.80
37846;DHT22;23686;49.828;8.702;2023-02-28T03:46:26;0.10;97.10
37846;DHT22;23686;49.828;8.702;2023-02-28T03:49:14;0.10;96.90
37846;DHT22;23686;49.828;8.702;2023-02-28T03:51:41;0.10;97.50
37846;DHT22;23686;49.828;8.702;2023-02-28T03:54:14;0.00;97.60
37846;DHT22;23686;49.828;8.702;2023-02-28T03:56:49;-0.10;98.30
37846;DHT22;23686;49.828;8.702;2023-02-28T03:59:33;-0.10;97.90
37846;DHT22;23686;49.828;8.702;2023-02-28T04:02:00;-0.20;98.60
37846;DHT22;23686;49.828;8.702;2023-02-28T04:04:25;-0.20;99.40
37846;DHT22;23686;49.828;8.702;2023-02-28T04:06:52;-0.20;99.50
37846;DHT22;23686;49.828;8.702;2023-02-28T04:09:18;-0.20;99.50
37846;DHT22;23686;49.828;8.702;2023-02-28T04:11:50;-0.20;99.80
37846;DHT22;23686;49.828;8.702;2023-02-28T04:14:17;-0.20;99.50
37846;DHT22;23686;49.828;8.702;2023-02-28T04:16:43;-0.20;99.90
37846;DHT22;23686;49.828;8.702;2023-02-28T04:19:10;-0.20;99.90
37846;DHT22;23686;49.828;8.702;2023-02-28T04:21:41;-0.20;99.90
37846;DHT22;23686;49.828;8.702;2023-02-28T04:24:09;-0.20;99.90
37846;DHT22;23686;49.828;8.702;2023-02-28T04:26:40;-0.20;99.90
37846;DHT22;23686;49.828;8.702;2023-02-28T04:29:06;-0.20;99.90
37846;DHT22;23686;49.828;8.702;2023-02-28T04:31:32;-0.10;99.90
37846;DHT22;23686;49.828;8.702;2023-02-28T04:33:58;-0.10;99.90
37846;DHT22;23686;49.828;8.702;2023-02-28T04:36:24;-0.10;99.90
37846;DHT22;23686;49.828;8.702;2023-02-28T04:38:50;-0.10;99.90
37846;DHT22;23686;49.828;8.702;2023-02-28T04:41:16;-0.10;99.90
37846;DHT22;23686;49.828;8.702;2023-02-28T04:43:42;-0.10;99.90
37846;DHT22;23686;49.828;8.702;2023-02-28T04:46:08;-0.20;99.90
37846;DHT22;23686;49.828;8.702;2023-02-28T04:48:35;-0.20;99.90
37846;DHT22;23686;49.828;8.702;2023-02-28T04:51:03;-0.20;99.90
37846;DHT22;23686;49.828;8.702;2023-02-28T04:53:30;-0.20;99.90
37846;DHT22;23686;49.828;8.702;2023-02-28T04:55:56;-0.30;99.90
37846;DHT22;23686;49.828;8.702;2023-02-28T04:58:22;-0.30;99.90
37846;DHT22;23686;49.828;8.702;2023-02-28T05:00:49;-0.40;99.90
37846;DHT22;23686;49.828;8.702;2023-02-28T05:03:15;-0.40;99.90
37846;DHT22;23686;49.828;8.702;2023-02-28T05:05:40;-0.50;99.90
37846;DHT22;23686;49.828;8.702;2023-02-28T05:08:06;-0.60;99.90
37846;DHT22;23686;49.828;8.702;2023-02-28T05:10:31;-0.60;99.90
37846;DHT22;23686;49.828;8.702;2023-02-28T05:12:57;-0.60;99.90
37846;DHT22;23686;49.828;8.702;2023-02-28T05:15:23;-0.70;99.90
37846;DHT22;23686;49.828;8.702;2023-02-28T05:17:48;-0.70;99.90
37846;DHT22;23686;49.828;8.702;2023-02-28T05:20:14;-0.70;99.90
37846;DHT22;23686;49.828;8.702;2023-02-28T05:22:40;-0.70;99.90
37846;DHT22;23686;49.828;8.702;2023-02-28T05:25:06;-0.70;99.90
37846;DHT22;23686;49.828;8.702;2023-02-28T05:27:33;-0.70;99.90
37846;DHT22;23686;49.828;8.702;2023-02-28T05:29:59;-0.70;99.90
37846;DHT22;23686;49.828;8.702;2023-02-28T05:32:25;-0.70;99.90
37846;DHT22;23686;49.828;8.702;2023-02-28T05:34:50;-0.70;99.90
37846;DHT22;23686;49.828;8.702;2023-02-28T05:37:16;-0.70;99.90
37846;DHT22;23686;49.828;8.702;2023-02-28T05:39:42;-0.70;99.90
37846;DHT22;23686;49.828;8.702;2023-02-28T05:42:08;-0.70;99.90
37846;DHT22;23686;49.828;8.702;2023-02-28T05:44:34;-0.60;99.90
37846;DHT22;23686;49.828;8.702;2023-02-28T05:47:00;-0.60;99.90
37846;DHT22;23686;49.828;8.702;2023-02-28T05:49:25;-0.60;99.90
37846;DHT22;23686;49.828;8.702;2023-02-28T05:51:52;-0.60;99.90
37846;DHT22;23686;49.828;8.702;2023-02-28T05:54:17;-0.60;99.90
37846;DHT22;23686;49.828;8.702;2023-02-28T05:56:43;-0.60;99.90
37846;DHT22;23686;49.828;8.702;2023-02-28T05:59:14;-0.70;99.90
37846;DHT22;23686;49.828;8.702;2023-02-28T06:01:41;-0.70;99.90
37846;DHT22;23686;49.828;8.702;2023-02-28T06:04:09;-0.70;99.90
37846;DHT22;23686;49.828;8.702;2023-02-28T06:06:35;-0.70;99.90
37846;DHT22;23686;49.828;8.702;2023-02-28T06:09:03;-0.80;99.90
37846;DHT22;23686;49.828;8.702;2023-02-28T06:11:29;-0.80;99.90
37846;DHT22;23686;49.828;8.702;2023-02-28T06:13:59;-0.80;99.90
37846;DHT22;23686;49.828;8.702;2023-02-28T06:16:27;-0.80;99.90
37846;DHT22;23686;49.828;8.702;2023-02-28T06:18:53;-0.70;99.90
37846;DHT22;23686;49.828;8.702;2023-02-28T06:21:21;-0.80;99.90
37846;DHT22;23686;49.828;8.702;2023-02-28T06:23:47;-0.80;99.90
37846;DHT22;23686;49.828;8.702;2023-02-28T06:26:12;-0.70;99.90
37846;DHT22;23686;49.828;8.702;2023-02-28T06:28:38;-0.80;99.90
37846;DHT22;23686;49.828;8.702;2023-02-28T06:31:11;-0.80;99.90
37846;DHT22;23686;49.828;8.702;2023-02-28T06:33:38;-0.80;99.90
37846;DHT22;23686;49.828;8.702;2023-02-28T06:36:04;-0.70;99.90
37846;DHT22;23686;49.828;8.702;2023-02-28T06:38:31;-0.60;99.90
37846;DHT22;23686;49.828;8.702;2023-02-28T06:40:57;-0.60;99.90
37846;DHT22;23686;49.828;8.702;2023-02-28T06:43:24;-0.40;99.90
37846;DHT22;23686;49.828;8.702;2023-02-28T06:45:50;-0.40;99.90
37846;DHT22;23686;49.828;8.702;2023-02-28T06:48:28;-0.30;99.90
37846;DHT22;23686;49.828;8.702;2023-02-28T06:51:05;-0.20;99.90
37846;DHT22;23686;49.828;8.702;2023-02-28T06:53:32;-0.20;99.90
37846;DHT22;23686;49.828;8.702;2023-02-28T06:55:57;-0.20;99.90
37846;DHT22;23686;49.828;8.702;2023-02-28T06:58:23;-0.20;99.90
37846;DHT22;23686;49.828;8.702;2023-02-28T07:00:51;-0.10;99.90
37846;DHT22;23686;49.828;8.702;2023-02-28T07:03:17;-0.10;99.90
37846;DHT22;23686;49.828;8.702;2023-02-28T07:05:43;-0.10;99.90
37846;DHT22;23686;49.828;8.702;2023-02-28T07:08:09;-0.10;99.90
37846;DHT22;23686;49.828;8.702;2023-02-28T07:10:38;-0.10;99.90
37846;DHT22;23686;49.828;8.702;2023-02-28T07:13:05;0.00;99.90
37846;DHT22;23686;49.828;8.702;2023-02-28T07:15:30;0.00;99.90
37846;DHT22;23686;49.828;8.702;2023-02-28T07:17:56;0.00;99.90
37846;DHT22;23686;49.828;8.702;2023-02-28T07:20:22;0.00;99.70
37846;DHT22;23686;49.828;8.702;2023-02-28T07:22:48;-0.10;99.50
37846;DHT22;23686;49.828;8.702;2023-02-28T07:25:21;-0.10;99.70
37846;DHT22;23686;49.828;8.702;2023-02-28T07:27:46;-0.20;99.90
37846;DHT22;23686;49.828;8.702;2023-02-28T07:30:12;-0.20;99.70
37846;DHT22;23686;49.828;8.702;2023-02-28T07:32:52;-0.20;99.90
37846;DHT22;23686;49.828;8.702;2023-02-28T07:35:19;-0.20;99.90
37846;DHT22;23686;49.828;8.702;2023-02-28T07:37:45;-0.10;99.90
37846;DHT22;23686;49.828;8.702;2023-02-28T07:40:13;-0.10;99.30
37846;DHT22;23686;49.828;8.702;2023-02-28T07:42:39;0.00;99.10
37846;DHT22;23686;49.828;8.702;2023-02-28T07:45:05;0.00;98.00
37846;DHT22;23686;49.828;8.702;2023-02-28T07:47:31;0.10;97.10
37846;DHT22;23686;49.828;8.702;2023-02-28T07:49:57;0.20;97.30
37846;DHT22;23686;49.828;8.702;2023-02-28T07:52:23;0.20;96.50
37846;DHT22;23686;49.828;8.702;2023-02-28T07:54:49;0.30;96.00
37846;DHT22;23686;49.828;8.702;2023-02-28T07:57:15;0.40;95.40
37846;DHT22;23686;49.828;8.702;2023-02-28T07:59:41;0.50;94.30
37846;DHT22;23686;49.828;8.702;2023-02-28T08:02:16;0.60;93.80
37846;DHT22;23686;49.828;8.702;2023-02-28T08:04:42;0.60;92.80
37846;DHT22;23686;49.828;8.702;2023-02-28T08:07:07;0.70;92.40
37846;DHT22;23686;49.828;8.702;2023-02-28T08:09:33;0.70;91.70
37846;DHT22;23686;49.828;8.702;2023-02-28T08:11:59;0.80;91.50
37846;DHT22;23686;49.828;8.702;2023-02-28T08:14:25;0.90;91.30
37846;DHT22;23686;49.828;8.702;2023-02-28T08:16:50;1.00;90.20
37846;DHT22;23686;49.828;8.702;2023-02-28T08:19:16;1.20;90.30
37846;DHT22;23686;49.828;8.702;2023-02-28T08:21:41;1.30;89.50
37846;DHT22;23686;49.828;8.702;2023-02-28T08:24:07;1.40;88.50
37846;DHT22;23686;49.828;8.702;2023-02-28T08:26:33;1.50;89.20
37846;DHT22;23686;49.828;8.702;2023-02-28T08:28:58;1.60;87.90
37846;DHT22;23686;49.828;8.702;2023-02-28T08:31:24;1.60;87.60
37846;DHT22;23686;49.828;8.702;2023-02-28T08:33:49;1.70;86.80
37846;DHT22;23686;49.828;8.702;2023-02-28T08:36:17;1.70;86.10
37846;DHT22;23686;49.828;8.702;2023-02-28T08:38:43;1.80;86.00
37846;DHT22;23686;49.828;8.702;2023-02-28T08:41:11;1.90;85.90
37846;DHT22;23686;49.828;8.702;2023-02-28T08:43:37;2.00;85.50
37846;DHT22;23686;49.828;8.702;2023-02-28T08:46:04;2.10;85.50
37846;DHT22;23686;49.828;8.702;2023-02-28T08:48:31;2.20;84.80
37846;DHT22;23686;49.828;8.702;2023-02-28T08:51:18;2.30;84.20
37846;DHT22;23686;49.828;8.702;2023-02-28T08:53:47;2.40;84.30
37846;DHT22;23686;49.828;8.702;2023-02-28T08:56:16;2.40;84.20
37846;DHT22;23686;49.828;8.702;2023-02-28T08:58:45;2.40;84.20
37846;DHT22;23686;49.828;8.702;2023-02-28T09:01:19;2.50;83.90
37846;DHT22;23686;49.828;8.702;2023-02-28T09:03:46;2.40;83.50
37846;DHT22;23686;49.828;8.702;2023-02-28T09:06:13;2.50;83.70
37846;DHT22;23686;49.828;8.702;2023-02-28T09:08:39;2.60;84.10
37846;DHT22;23686;49.828;8.702;2023-02-28T09:11:05;2.70;83.00
37846;DHT22;23686;49.828;8.702;2023-02-28T09:13:32;2.70;82.50
37846;DHT22;23686;49.828;8.702;2023-02-28T09:15:59;2.80;83.00
37846;DHT22;23686;49.828;8.702;2023-02-28T09:18:25;2.90;82.30
37846;DHT22;23686;49.828;8.702;2023-02-28T09:20:51;2.90;81.90
37846;DHT22;23686;49.828;8.702;2023-02-28T09:23:17;2.90;81.90
37846;DHT22;23686;49.828;8.702;2023-02-28T09:25:48;3.00;81.80
37846;DHT22;23686;49.828;8.702;2023-02-28T09:28:14;3.00;82.10
37846;DHT22;23686;49.828;8.702;2023-02-28T09:30:44;3.20;82.10
37846;DHT22;23686;49.828;8.702;2023-02-28T09:33:10;3.30;81.50
37846;DHT22;23686;49.828;8.702;2023-02-28T09:35:36;3.40;80.10
37846;DHT22;23686;49.828;8.702;2023-02-28T09:38:03;3.50;79.60
37846;DHT22;23686;49.828;8.702;2023-02-28T09:40:29;3.60;79.00
37846;DHT22;23686;49.828;8.702;2023-02-28T09:42:57;3.70;78.90
37846;DHT22;23686;49.828;8.702;2023-02-28T09:45:33;3.80;78.90
37846;DHT22;23686;49.828;8.702;2023-02-28T09:48:04;3.80;77.70
37846;DHT22;23686;49.828;8.702;2023-02-28T09:50:41;3.70;76.90
37846;DHT22;23686;49.828;8.702;2023-02-28T09:53:27;3.80;77.70
37846;DHT22;23686;49.828;8.702;2023-02-28T09:56:36;3.70;76.90
37846;DHT22;23686;49.828;8.702;2023-02-28T09:59:10;3.80;77.00
37846;DHT22;23686;49.828;8.702;2023-02-28T10:02:01;4.00;77.30
37846;DHT22;23686;49.828;8.702;2023-02-28T10:04:58;4.10;76.20
37846;DHT22;23686;49.828;8.702;2023-02-28T10:08:02;4.10;74.60
37846;DHT22;23686;49.828;8.702;2023-02-28T10:10:49;4.10;74.90
37846;DHT22;23686;49.828;8.702;2023-02-28T10:15:49;4.20;74.70
37846;DHT22;23686;49.828;8.702;2023-02-28T10:18:21;4.30;76.80
37846;DHT22;23686;49.828;8.702;2023-02-28T10:20:47;4.40;74.20
37846;DHT22;23686;49.828;8.702;2023-02-28T10:23:21;4.30;73.60
37846;DHT22;23686;49.828;8.702;2023-02-28T10:26:11;4.40;74.00
37846;DHT22;23686;49.828;8.702;2023-02-28T10:28:38;4.50;73.20
37846;DHT22;23686;49.828;8.702;2023-02-28T10:31:03;4.60;72.20
37846;DHT22;23686;49.828;8.702;2023-02-28T10:36:05;4.60;71.10
37846;DHT22;23686;49.828;8.702;2023-02-28T10:38:38;4.60;71.20
37846;DHT22;23686;49.828;8.702;2023-02-28T10:41:13;4.60;71.50
37846;DHT22;23686;49.828;8.702;2023-02-28T10:43:40;4.60;71.60
37846;DHT22;23686;49.828;8.702;2023-02-28T10:46:16;4.70;72.20
37846;DHT22;23686;49.828;8.702;2023-02-28T10:51:35;4.80;70.60
37846;DHT22;23686;49.828;8.702;2023-02-28T10:54:02;4.90;70.30
37846;DHT22;23686;49.828;8.702;2023-02-28T10:56:29;5.00;70.30
37846;DHT22;23686;49.828;8.702;2023-02-28T10:59:03;5.10;70.20
37846;DHT22;23686;49.828;8.702;2023-02-28T11:01:46;5.00;70.60
37846;DHT22;23686;49.828;8.702;2023-02-28T11:04:19;5.10;71.20
37846;DHT22;23686;49.828;8.702;2023-02-28T11:06:47;5.20;71.20
37846;DHT22;23686;49.828;8.702;2023-02-28T11:11:47;5.10;70.10
37846;DHT22;23686;49.828;8.702;2023-02-28T11:14:25;5.10;71.00
37846;DHT22;23686;49.828;8.702;2023-02-28T11:16:51;5.10;70.50
37846;DHT22;23686;49.828;8.702;2023-02-28T11:19:34;5.10;70.80
37846;DHT22;23686;49.828;8.702;2023-02-28T11:22:02;5.00;70.40
37846;DHT22;23686;49.828;8.702;2023-02-28T11:24:33;4.90;70.50
37846;DHT22;23686;49.828;8.702;2023-02-28T11:26:59;5.00;70.70
37846;DHT22;23686;49.828;8.702;2023-02-28T11:29:27;5.10;70.40
37846;DHT22;23686;49.828;8.702;2023-02-28T11:34:34;5.10;71.00
37846;DHT22;23686;49.828;8.702;2023-02-28T11:37:01;5.20;70.90
37846;DHT22;23686;49.828;8.702;2023-02-28T11:39:30;5.30;71.10
37846;DHT22;23686;49.828;8.702;2023-02-28T11:42:12;5.30;70.80
37846;DHT22;23686;49.828;8.702;2023-02-28T11:50:38;5.00;70.50
37846;DHT22;23686;49.828;8.702;2023-02-28T11:55:44;5.00;71.60
37846;DHT22;23686;49.828;8.702;2023-02-28T11:58:22;5.00;71.40
37846;DHT22;23686;49.828;8.702;2023-02-28T12:04:04;5.20;72.60
37846;DHT22;23686;49.828;8.702;2023-02-28T12:12:18;5.40;71.30
37846;DHT22;23686;49.828;8.702;2023-02-28T12:14:49;5.40;70.00
37846;DHT22;23686;49.828;8.702;2023-02-28T12:20:02;5.50;69.80
37846;DHT22;23686;49.828;8.702;2023-02-28T12:22:35;5.30;70.00
37846;DHT22;23686;49.828;8.702;2023-02-28T12:27:33;5.30;70.30
37846;DHT22;23686;49.828;8.702;2023-02-28T12:32:52;5.40;70.30
37846;DHT22;23686;49.828;8.702;2023-02-28T12:35:24;5.40;70.50
37846;DHT22;23686;49.828;8.702;2023-02-28T12:37:57;5.40;70.20
37846;DHT22;23686;49.828;8.702;2023-02-28T12:40:28;5.50;70.60
37846;DHT22;23686;49.828;8.702;2023-02-28T12:43:04;5.50;71.00
37846;DHT22;23686;49.828;8.702;2023-02-28T12:45:53;5.40;70.20
37846;DHT22;23686;49.828;8.702;2023-02-28T12:48:43;5.30;70.20
37846;DHT22;23686;49.828;8.702;2023-02-28T12:51:10;5.30;70.90
37846;DHT22;23686;49.828;8.702;2023-02-28T12:56:34;5.30;71.60
37846;DHT22;23686;49.828;8.702;2023-02-28T12:59:36;5.40;71.10
37846;DHT22;23686;49.828;8.702;2023-02-28T13:08:08;5.40;71.30
37846;DHT22;23686;49.828;8.702;2023-02-28T13:10:43;5.40;70.50
37846;DHT22;23686;49.828;8.702;2023-02-28T13:13:18;5.40;70.10
37846;DHT22;23686;49.828;8.702;2023-02-28T13:16:10;5.30;69.90
37846;DHT22;23686;49.828;8.702;2023-02-28T13:18:39;5.30;70.70
37846;DHT22;23686;49.828;8.702;2023-02-28T13:21:23;5.40;70.90
37846;DHT22;23686;49.828;8.702;2023-02-28T13:34:32;5.40;70.50
37846;DHT22;23686;49.828;8.702;2023-02-28T13:40:36;5.40;70.00
37846;DHT22;23686;49.828;8.702;2023-02-28T13:42:52;5.40;70.20
37846;DHT22;23686;49.828;8.702;2023-02-28T13:45:30;5.30;69.50
37846;DHT22;23686;49.828;8.702;2023-02-28T13:48:00;5.30;70.10
37846;DHT22;23686;49.828;8.702;2023-02-28T14:01:45;5.30;70.60
37846;DHT22;23686;49.828;8.702;2023-02-28T14:07:03;5.40;71.00
37846;DHT22;23686;49.828;8.702;2023-02-28T14:09:38;5.30;70.00
37846;DHT22;23686;49.828;8.702;2023-02-28T14:18:29;5.40;70.00
37846;DHT22;23686;49.828;8.702;2023-02-28T14:21:08;5.40;70.00
37846;DHT22;23686;49.828;8.702;2023-02-28T14:35:00;5.40;69.80
37846;DHT22;23686;49.828;8.702;2023-02-28T14:37:29;5.40;70.20
37846;DHT22;23686;49.828;8.702;2023-02-28T14:39:57;5.40;70.30
37846;DHT22;23686;49.828;8.702;2023-02-28T14:42:34;5.40;70.10
37846;DHT22;23686;49.828;8.702;2023-02-28T14:45:01;5.50;70.50
37846;DHT22;23686;49.828;8.702;2023-02-28T14:47:35;5.60;70.70
37846;DHT22;23686;49.828;8.702;2023-02-28T14:50:02;5.70;71.30
37846;DHT22;23686;49.828;8.702;2023-02-28T14:52:31;5.70;71.40
37846;DHT22;23686;49.828;8.702;2023-02-28T14:55:00;5.70;71.20
37846;DHT22;23686;49.828;8.702;2023-02-28T14:57:31;5.70;72.00
37846;DHT22;23686;49.828;8.702;2023-02-28T15:00:33;5.70;70.30
37846;DHT22;23686;49.828;8.702;2023-02-28T15:03:01;5.70;70.40
37846;DHT22;23686;49.828;8.702;2023-02-28T15:05:32;5.70;70.00
37846;DHT22;23686;49.828;8.702;2023-02-28T15:08:13;5.70;69.70
37846;DHT22;23686;49.828;8.702;2023-02-28T15:11:23;5.70;70.40
37846;DHT22;23686;49.828;8.702;2023-02-28T15:13:44;5.70;69.90
37846;DHT22;23686;49.828;8.702;2023-02-28T15:16:16;5.70;70.10
37846;DHT22;23686;49.828;8.702;2023-02-28T15:18:49;5.70;70.00
37846;DHT22;23686;49.828;8.702;2023-02-28T15:21:22;5.80;71.00
37846;DHT22;23686;49.828;8.702;2023-02-28T15:24:31;5.80;70.40
37846;DHT22;23686;49.828;8.702;2023-02-28T15:26:58;5.90;70.10
37846;DHT22;23686;49.828;8.702;2023-02-28T15:29:27;5.90;70.10
37846;DHT22;23686;49.828;8.702;2023-02-28T15:32:02;5.90;69.60
37846;DHT22;23686;49.828;8.702;2023-02-28T15:34:40;5.80;69.40
37846;DHT22;23686;49.828;8.702;2023-02-28T15:37:45;5.80;69.20
37846;DHT22;23686;49.828;8.702;2023-02-28T15:42:37;5.80;69.70
37846;DHT22;23686;49.828;8.702;2023-02-28T15:45:02;5.80;69.40
37846;DHT22;23686;49.828;8.702;2023-02-28T15:47:29;5.90;69.90
37846;DHT22;23686;49.828;8.702;2023-02-28T15:50:01;5.90;69.40
37846;DHT22;23686;49.828;8.702;2023-02-28T15:52:33;5.80;69.90
37846;DHT22;23686;49.828;8.702;2023-02-28T15:55:12;5.90;69.40
37846;DHT22;23686;49.828;8.702;2023-02-28T15:57:41;5.80;69.60
37846;DHT22;23686;49.828;8.702;2023-02-28T16:00:12;5.90;70.20
37846;DHT22;23686;49.828;8.702;2023-02-28T16:02:39;5.80;69.60
37846;DHT22;23686;49.828;8.702;2023-02-28T16:07:33;5.90;69.40
37846;DHT22;23686;49.828;8.702;2023-02-28T16:10:00;5.90;69.80
37846;DHT22;23686;49.828;8.702;2023-02-28T16:12:27;5.90;70.00
37846;DHT22;23686;49.828;8.702;2023-02-28T16:14:56;5.90;70.20
37846;DHT22;23686;49.828;8.702;2023-02-28T16:17:28;5.90;69.50
37846;DHT22;23686;49.828;8.702;2023-02-28T16:19:54;5.80;69.00
37846;DHT22;23686;49.828;8.702;2023-02-28T16:22:20;5.80;69.20
37846;DHT22;23686;49.828;8.702;2023-02-28T16:24:46;5.80;70.50
37846;DHT22;23686;49.828;8.702;2023-02-28T16:27:18;5.80;70.60
37846;DHT22;23686;49.828;8.702;2023-02-28T16:29:46;5.80;69.90
37846;DHT22;23686;49.828;8.702;2023-02-28T16:32:14;5.80;69.80
37846;DHT22;23686;49.828;8.702;2023-02-28T16:34:41;5.80;70.10
37846;DHT22;23686;49.828;8.702;2023-02-28T16:37:15;5.70;70.40
37846;DHT22;23686;49.828;8.702;2023-02-28T16:39:43;5.70;70.40
37846;DHT22;23686;49.828;8.702;2023-02-28T16:42:25;5.70;70.30
37846;DHT22;23686;49.828;8.702;2023-02-28T16:44:52;5.70;71.20
37846;DHT22;23686;49.828;8.702;2023-02-28T16:47:18;5.70;70.70
37846;DHT22;23686;49.828;8.702;2023-02-28T16:49:44;5.60;70.80
37846;DHT22;23686;49.828;8.702;2023-02-28T16:52:10;5.60;71.00
37846;DHT22;23686;49.828;8.702;2023-02-28T16:54:37;5.50;70.80
37846;DHT22;23686;49.828;8.702;2023-02-28T16:57:04;5.50;71.00
37846;DHT22;23686;49.828;8.702;2023-02-28T16:59:30;5.40;70.90
37846;DHT22;23686;49.828;8.702;2023-02-28T17:01:56;5.40;70.80
37846;DHT22;23686;49.828;8.702;2023-02-28T17:04:27;5.30;71.20
37846;DHT22;23686;49.828;8.702;2023-02-28T17:06:53;5.30;71.30
37846;DHT22;23686;49.828;8.702;2023-02-28T17:09:22;5.20;71.10
37846;DHT22;23686;49.828;8.702;2023-02-28T17:11:48;5.20;72.60
37846;DHT22;23686;49.828;8.702;2023-02-28T17:14:14;5.10;72.70
37846;DHT22;23686;49.828;8.702;2023-02-28T17:16:41;5.10;72.30
37846;DHT22;23686;49.828;8.702;2023-02-28T17:19:11;5.10;72.60
37846;DHT22;23686;49.828;8.702;2023-02-28T17:21:37;5.10;72.30
37846;DHT22;23686;49.828;8.702;2023-02-28T17:24:04;5.00;72.60
37846;DHT22;23686;49.828;8.702;2023-02-28T17:26:30;5.00;72.80
37846;DHT22;23686;49.828;8.702;2023-02-28T17:28:56;5.00;73.20
37846;DHT22;23686;49.828;8.702;2023-02-28T17:31:24;4.90;72.80
37846;DHT22;23686;49.828;8.702;2023-02-28T17:33:50;4.90;73.20
37846;DHT22;23686;49.828;8.702;2023-02-28T17:36:21;4.80;73.20
37846;DHT22;23686;49.828;8.702;2023-02-28T17:38:48;4.80;73.20
37846;DHT22;23686;49.828;8.702;2023-02-28T17:41:14;4.70;73.30
37846;DHT22;23686;49.828;8.702;2023-02-28T17:43:40;4.70;73.60
37846;DHT22;23686;49.828;8.702;2023-02-28T17:46:16;4.60;73.40
37846;DHT22;23686;49.828;8.702;2023-02-28T17:48:43;4.60;73.10
37846;DHT22;23686;49.828;8.702;2023-02-28T17:51:12;4.60;73.60
37846;DHT22;23686;49.828;8.702;2023-02-28T17:53:38;4.50;73.80
37846;DHT22;23686;49.828;8.702;2023-02-28T17:56:04;4.50;73.80
37846;DHT22;23686;49.828;8.702;2023-02-28T17:58:30;4.40;74.20
37846;DHT22;23686;49.828;8.702;2023-02-28T18:00:56;4.40;74.70
37846;DHT22;23686;49.828;8.702;2023-02-28T18:03:22;4.30;74.60
37846;DHT22;23686;49.828;8.702;2023-02-28T18:05:49;4.30;76.40